Time;durP1;ratioP1;P1;durP2;ratioP2;P2;SDS_P1;SDS_P2;PMS_P1;PMS_P2;Temp;Humidity;BMP_temperature;BMP_pressure;BME280_temperature;BME280_humidity;BME280_pressure;Samples;Min_cycle;Max_cycle;Signal;HPM_P1;HPM_P2
2022/07/04 00:00:53;;;;;;;;;1.50;1.25;;;;;23.32;38.46;101636.09;5038431;28;45401;-53
2022/07/04 00:03:18;;;;;;;;;1.00;1.00;;;;;23.31;38.51;101637.91;5038842;28;45562;-52
2022/07/04 00:05:44;;;;;;;;;2.25;2.00;;;;;23.31;38.53;101643.19;5038131;28;45855;-53
2022/07/04 00:08:09;;;;;;;;;3.00;1.00;;;;;23.31;38.52;101645.00;5038275;28;45893;-52
2022/07/04 00:10:34;;;;;;;;;1.00;1.00;;;;;23.29;38.35;101649.50;5037700;28;45476;-54
2022/07/04 00:13:00;;;;;;;;;1.75;1.00;;;;;23.30;38.63;101659.16;5038414;28;45284;-52
2022/07/04 00:15:25;;;;;;;;;2.00;2.00;;;;;23.26;38.24;101645.22;5038320;28;46040;-54
2022/07/04 00:17:51;;;;;;;;;1.25;1.00;;;;;23.29;38.34;101652.16;5037882;28;45382;-54
2022/07/04 00:20:17;;;;;;;;;3.00;2.00;;;;;23.31;38.33;101658.22;5038391;28;45328;-54
2022/07/04 00:22:43;;;;;;;;;3.50;2.00;;;;;23.30;38.49;101651.22;5037925;28;45498;-54
2022/07/04 00:25:09;;;;;;;;;2.50;2.00;;;;;23.30;38.70;101651.22;5038047;28;45327;-53
2022/07/04 00:27:34;;;;;;;;;1.00;1.00;;;;;23.28;38.29;101648.63;5038509;28;45389;-54
2022/07/04 00:30:00;;;;;;;;;2.00;2.00;;;;;23.28;38.75;101646.00;5037916;28;45169;-53
2022/07/04 00:32:25;;;;;;;;;1.00;1.00;;;;;23.28;38.89;101647.78;5038285;28;45231;-52
2022/07/04 00:34:50;;;;;;;;;1.00;1.00;;;;;23.29;38.93;101654.81;5037412;28;45993;-53
2022/07/04 00:37:16;;;;;;;;;1.00;1.00;;;;;23.29;38.70;101654.81;5037839;28;47155;-53
2022/07/04 00:39:41;;;;;;;;;2.25;1.00;;;;;23.29;38.61;101654.81;5036444;28;45258;-53
2022/07/04 00:42:10;;;;;;;;;2.00;2.00;;;;;23.28;38.86;101659.22;5038549;28;45523;-53
2022/07/04 00:44:36;;;;;;;;;2.50;1.00;;;;;23.29;38.67;101655.63;5037969;28;46264;-51
2022/07/04 00:47:03;;;;;;;;;3.00;1.00;;;;;23.29;38.81;101660.09;5037423;28;45923;-52
2022/07/04 00:49:28;;;;;;;;;2.75;1.25;;;;;23.26;38.82;101653.16;5037698;28;45268;-51
2022/07/04 00:51:54;;;;;;;;;1.00;1.00;;;;;23.24;38.68;101656.81;5037758;28;45367;-52
2022/07/04 00:54:21;;;;;;;;;2.25;1.00;;;;;23.24;38.46;101657.69;5037387;28;45304;-52
2022/07/04 00:56:47;;;;;;;;;1.00;1.00;;;;;23.22;38.78;101648.13;5037373;28;45681;-52
2022/07/04 00:59:12;;;;;;;;;1.50;1.50;;;;;23.23;38.58;101655.97;5037644;28;45293;-53
2022/07/04 01:01:38;;;;;;;;;0.00;0.00;;;;;23.24;38.59;101662.13;5038159;28;45260;-53
2022/07/04 01:04:05;;;;;;;;;0.00;0.00;;;;;23.24;38.71;101646.25;5037454;28;46997;-51
2022/07/04 01:06:32;;;;;;;;;1.25;0.00;;;;;23.22;38.69;101648.13;5037394;28;45431;-51
2022/07/04 01:08:58;;;;;;;;;1.00;1.00;;;;;23.22;38.62;101648.97;5037089;28;45487;-53
2022/07/04 01:11:24;;;;;;;;;0.00;0.00;;;;;23.20;38.50;101650.84;5037671;28;45463;-54
2022/07/04 01:13:49;;;;;;;;;0.25;0.25;;;;;23.20;38.60;101652.66;5036826;28;46188;-54
2022/07/04 01:16:14;;;;;;;;;1.00;0.00;;;;;23.19;38.74;101657.06;5037135;28;48763;-51
2022/07/04 01:18:40;;;;;;;;;1.00;0.00;;;;;23.19;38.52;101654.44;5037026;28;45453;-53
2022/07/04 01:21:06;;;;;;;;;1.00;1.00;;;;;23.19;38.41;101658.84;5037910;28;45566;-54
2022/07/04 01:23:35;;;;;;;;;0.75;0.50;;;;;23.19;38.48;101657.06;5037059;28;46266;-54
2022/07/04 01:26:02;;;;;;;;;1.00;0.00;;;;;23.18;38.92;101663.25;5019001;28;45475;-51
2022/07/04 01:28:27;;;;;;;;;1.00;1.00;;;;;23.19;38.64;101661.50;5037367;28;45475;-54
2022/07/04 01:30:53;;;;;;;;;1.25;1.00;;;;;23.17;38.84;101662.41;5036518;28;53439;-52
2022/07/04 01:33:19;;;;;;;;;0.00;0.00;;;;;23.18;38.70;101657.97;5036983;28;45375;-54
2022/07/04 01:35:45;;;;;;;;;2.00;0.25;;;;;23.19;38.58;101666.78;5036777;28;45264;-54
2022/07/04 01:38:10;;;;;;;;;0.25;0.25;;;;;23.19;38.53;101653.56;5037320;28;45309;-54
2022/07/04 01:40:36;;;;;;;;;1.00;1.00;;;;;23.19;38.38;101659.72;5037798;28;45224;-54
2022/07/04 01:43:01;;;;;;;;;1.00;1.00;;;;;23.19;38.34;101656.19;5036572;28;45278;-53
2022/07/04 01:45:27;;;;;;;;;1.00;0.00;;;;;23.15;38.01;101653.72;5036848;28;45214;-54
2022/07/04 01:47:52;;;;;;;;;0.00;0.00;;;;;23.14;38.04;101659.94;5036663;28;45432;-52
2022/07/04 01:50:18;;;;;;;;;0.25;0.25;;;;;23.12;38.06;101653.88;5037137;28;45551;-52
2022/07/04 01:52:43;;;;;;;;;3.00;1.00;;;;;23.10;37.73;101650.44;5036330;28;46313;-52
2022/07/04 01:55:12;;;;;;;;;1.00;1.00;;;;;23.10;37.85;101642.50;5018655;28;46040;-51
2022/07/04 01:57:39;;;;;;;;;1.00;1.00;;;;;23.09;38.13;101646.13;5037159;28;45406;-54
2022/07/04 02:02:55;;;;;;;;;2.00;1.00;;;;;23.07;38.15;101640.06;5036273;28;45388;-52
2022/07/04 02:05:22;;;;;;;;;0.25;0.25;;;;;23.06;37.88;101635.69;5036508;28;45715;-52
2022/07/04 02:07:48;;;;;;;;;2.00;1.00;;;;;23.07;38.19;101640.06;5036354;28;45273;-53
2022/07/04 02:10:13;;;;;;;;;0.00;0.00;;;;;23.05;37.76;101638.41;5019200;28;45443;-54
2022/07/04 02:15:22;;;;;;;;;1.00;1.00;;;;;23.04;38.30;101634.94;5036295;28;45420;-53
2022/07/04 02:17:48;;;;;;;;;0.50;0.50;;;;;23.05;37.97;101635.75;5036347;28;45374;-53
2022/07/04 02:20:14;;;;;;;;;0.00;0.00;;;;;23.00;38.04;101628.09;5035224;28;55230;-53
2022/07/04 02:22:40;;;;;;;;;0.25;0.25;;;;;23.05;38.14;101641.06;5035923;28;46414;-52
2022/07/04 02:25:06;;;;;;;;;0.50;0.50;;;;;23.04;37.91;101639.38;5036600;28;45408;-54
2022/07/04 02:27:32;;;;;;;;;0.50;0.00;;;;;23.05;38.02;101641.06;5036241;28;45240;-53
2022/07/04 02:29:57;;;;;;;;;1.25;0.75;;;;;23.02;37.84;101642.06;5036198;28;45230;-54
2022/07/04 02:32:23;;;;;;;;;1.00;1.00;;;;;23.03;37.97;101638.50;5036059;28;46091;-54
2022/07/04 02:34:48;;;;;;;;;0.75;0.00;;;;;23.03;38.26;101643.78;5035894;28;45642;-52
2022/07/04 02:37:14;;;;;;;;;0.00;0.00;;;;;23.03;38.24;101642.94;5036591;28;45925;-55
2022/07/04 02:39:39;;;;;;;;;0.25;0.00;;;;;23.01;38.21;101637.72;5036291;28;45591;-53
2022/07/04 02:42:05;;;;;;;;;0.00;0.00;;;;;22.99;38.06;101637.81;5036278;28;46111;-54
2022/07/04 02:44:30;;;;;;;;;0.00;0.00;;;;;23.00;38.35;101641.28;5035923;28;45486;-53
2022/07/04 02:46:56;;;;;;;;;0.00;0.00;;;;;23.00;38.13;101643.94;5035644;28;46126;-51
2022/07/04 02:49:21;;;;;;;;;1.50;0.00;;;;;23.01;38.46;101650.94;5036346;28;45335;-55
2022/07/04 02:51:46;;;;;;;;;1.75;0.25;;;;;23.01;38.23;101643.00;5034099;28;45360;-53
2022/07/04 02:54:12;;;;;;;;;0.00;0.00;;;;;23.00;38.06;101636.00;5035809;28;45273;-52
2022/07/04 02:56:37;;;;;;;;;0.00;0.00;;;;;22.99;38.23;101643.09;5036420;28;45495;-55
2022/07/04 02:59:03;;;;;;;;;2.25;0.75;;;;;22.99;38.45;101652.81;5035924;28;45407;-55
2022/07/04 03:01:28;;;;;;;;;0.50;0.50;;;;;22.99;38.29;101656.31;5035857;28;45396;-55
2022/07/04 03:03:54;;;;;;;;;1.00;1.00;;;;;22.97;38.32;101649.41;5034440;28;45330;-55
2022/07/04 03:06:19;;;;;;;;;1.50;0.75;;;;;22.98;38.23;101662.53;5035915;28;45309;-54
2022/07/04 03:08:45;;;;;;;;;1.00;1.00;;;;;22.97;38.39;101654.69;5035754;28;45276;-54
2022/07/04 03:11:11;;;;;;;;;3.00;0.00;;;;;22.97;38.42;101657.34;5035516;28;46346;-53
2022/07/04 03:13:38;;;;;;;;;0.00;0.00;;;;;22.97;38.30;101665.28;5036040;28;45276;-55
2022/07/04 03:16:04;;;;;;;;;0.25;0.25;;;;;22.95;38.33;101660.06;5035564;28;45204;-52
2022/07/04 03:18:29;;;;;;;;;0.00;0.00;;;;;22.95;38.39;101662.69;5036077;28;45371;-54
2022/07/04 03:20:54;;;;;;;;;0.75;0.00;;;;;22.96;38.33;101668.84;5035288;28;45491;-53
2022/07/04 03:23:20;;;;;;;;;0.50;0.00;;;;;22.95;38.75;101667.16;5035415;28;45409;-54
2022/07/04 03:25:45;;;;;;;;;1.00;1.00;;;;;22.95;38.47;101667.16;5035255;28;45432;-54
2022/07/04 03:28:11;;;;;;;;;1.00;1.00;;;;;22.95;38.26;101670.63;5035855;28;45621;-53
2022/07/04 03:30:36;;;;;;;;;0.00;0.00;;;;;22.95;38.44;101667.16;5034552;28;48079;-55
2022/07/04 03:33:01;;;;;;;;;0.00;0.00;;;;;22.94;38.57;101666.28;5020932;28;45514;-54
2022/07/04 03:35:27;;;;;;;;;0.25;0.25;;;;;22.95;38.38;101670.63;5039135;28;45795;-54
2022/07/04 03:37:53;;;;;;;;;0.00;0.00;;;;;22.94;38.69;101670.72;5038863;28;45510;-54
2022/07/04 03:40:20;;;;;;;;;0.00;0.00;;;;;22.93;38.63;101671.66;5038857;28;46150;-55
2022/07/04 03:42:45;;;;;;;;;0.00;0.00;;;;;22.92;38.57;101670.81;5038737;28;45610;-54
2022/07/04 03:45:10;;;;;;;;;1.00;0.00;;;;;22.89;38.61;101662.16;5039024;28;45174;-54
2022/07/04 03:47:36;;;;;;;;;1.00;1.00;;;;;22.92;38.77;101667.28;5039391;28;45226;-54
2022/07/04 03:50:02;;;;;;;;;1.00;1.00;;;;;22.90;38.82;101670.03;5038365;28;46373;-53
2022/07/04 03:52:27;;;;;;;;;1.25;0.50;;;;;22.88;38.66;101655.16;5038769;28;45253;-54
2022/07/04 03:54:53;;;;;;;;;1.75;1.00;;;;;22.87;38.60;101656.97;5038501;28;45225;-54
2022/07/04 03:57:19;;;;;;;;;0.25;0.25;;;;;22.88;38.55;101657.81;5038935;28;45556;-55
2022/07/04 03:59:44;;;;;;;;;0.00;0.00;;;;;22.84;38.90;101655.34;5038229;28;45335;-52
2022/07/04 04:02:09;;;;;;;;;0.25;0.00;;;;;22.87;38.79;101662.25;5039024;28;45534;-53
2022/07/04 04:07:18;;;;;;;;;0.25;0.25;;;;;22.88;38.87;101655.16;5038989;28;45221;-54
2022/07/04 04:09:44;;;;;;;;;1.00;1.00;;;;;22.89;38.69;101662.16;5038055;28;45332;-55
2022/07/04 04:12:09;;;;;;;;;1.25;1.00;;;;;22.89;38.59;101667.44;5038729;28;45297;-54
2022/07/04 04:14:35;;;;;;;;;1.75;1.00;;;;;22.90;38.92;101670.03;5038204;28;45344;-53
2022/07/04 04:17:00;;;;;;;;;1.00;0.75;;;;;22.89;38.88;101668.31;5020268;28;45497;-54
2022/07/04 04:19:25;;;;;;;;;0.25;0.25;;;;;22.91;38.80;101674.38;5038143;28;45431;-53
2022/07/04 04:21:51;;;;;;;;;1.00;1.00;;;;;22.91;38.67;101677.03;5037893;28;45557;-54
2022/07/04 04:24:16;;;;;;;;;0.50;0.50;;;;;22.88;38.80;101678.94;5038413;28;45452;-50
2022/07/04 04:26:41;;;;;;;;;1.75;1.00;;;;;22.94;38.64;101686.59;5038519;28;45693;-53
2022/07/04 04:29:07;;;;;;;;;0.75;0.75;;;;;22.92;38.70;101680.50;5038510;28;46296;-54
2022/07/04 04:31:32;;;;;;;;;2.00;1.00;;;;;22.93;39.02;101685.72;5038138;28;45340;-55
2022/07/04 04:33:58;;;;;;;;;1.00;1.00;;;;;22.93;38.87;101692.78;5037690;28;45261;-54
2022/07/04 04:36:23;;;;;;;;;1.00;1.00;;;;;22.94;38.93;101686.59;5038316;28;45646;-53
2022/07/04 04:38:49;;;;;;;;;1.00;1.00;;;;;22.94;38.90;101692.72;5037360;28;45316;-53
2022/07/04 04:41:14;;;;;;;;;0.25;0.25;;;;;22.94;38.97;101683.94;5037829;28;45279;-52
2022/07/04 04:43:39;;;;;;;;;1.00;1.00;;;;;22.95;39.09;101686.50;5037820;28;45769;-51
2022/07/04 04:46:05;;;;;;;;;1.50;1.00;;;;;22.95;38.98;101683.00;5037819;28;45173;-54
2022/07/04 04:48:30;;;;;;;;;2.25;1.00;;;;;22.93;39.08;101679.59;5037214;28;56936;-55
2022/07/04 04:50:55;;;;;;;;;0.00;0.00;;;;;22.94;39.23;101686.59;5037412;28;45361;-54
2022/07/04 04:53:25;;;;;;;;;0.25;0.25;;;;;22.94;39.41;101684.78;5037653;28;45340;-54
2022/07/04 04:55:51;;;;;;;;;1.75;1.00;;;;;22.94;39.28;101686.59;5037622;28;45507;-55
2022/07/04 04:58:16;;;;;;;;;2.50;2.00;;;;;22.94;39.17;101686.59;5037515;28;47061;-55
2022/07/04 05:00:42;;;;;;;;;1.00;1.00;;;;;22.93;39.21;101683.06;5037347;28;45411;-55
2022/07/04 05:03:07;;;;;;;;;1.75;1.00;;;;;22.93;39.39;101680.41;5038124;28;45359;-55
2022/07/04 05:05:32;;;;;;;;;2.75;2.75;;;;;22.93;39.43;101682.22;5019676;28;46863;-55
2022/07/04 05:07:58;;;;;;;;;4.00;4.00;;;;;22.91;39.61;101682.31;5037095;28;45277;-53
2022/07/04 05:10:23;;;;;;;;;3.00;3.00;;;;;22.92;39.46;101689.31;5037225;28;45328;-54
2022/07/04 05:12:48;;;;;;;;;2.00;2.00;;;;;22.91;39.51;101687.59;5019552;28;45424;-55
2022/07/04 05:15:14;;;;;;;;;1.25;1.25;;;;;22.92;39.77;101685.78;5037552;28;45601;-54
2022/07/04 05:17:39;;;;;;;;;2.00;2.00;;;;;22.90;39.66;101685.03;5019647;28;47194;-51
2022/07/04 05:20:06;;;;;;;;;2.00;2.00;;;;;22.91;39.31;101686.72;5036977;28;45265;-50
2022/07/04 05:22:31;;;;;;;;;1.75;1.00;;;;;22.90;39.78;101691.19;5019299;28;45467;-53
2022/07/04 05:24:59;;;;;;;;;1.75;1.75;;;;;22.88;39.88;101686.88;5037212;28;45543;-51
2022/07/04 05:27:25;;;;;;;;;2.00;2.00;;;;;22.87;39.84;101682.56;5037133;28;46225;-51
2022/07/04 05:29:51;;;;;;;;;1.25;1.25;;;;;22.85;40.06;101683.50;5036860;28;46378;-51
2022/07/04 05:32:16;;;;;;;;;2.50;2.00;;;;;22.83;39.80;101677.41;5037345;28;45867;-52
2022/07/04 05:34:42;;;;;;;;;2.00;2.00;;;;;22.84;39.88;101681.78;5037018;28;45563;-50
2022/07/04 05:37:07;;;;;;;;;2.00;2.00;;;;;22.83;39.88;101680.06;5037226;28;45998;-51
2022/07/04 05:39:33;;;;;;;;;2.50;2.50;;;;;22.83;40.01;101684.47;5037089;28;45458;-53
2022/07/04 05:41:58;;;;;;;;;0.00;0.00;;;;;22.83;39.82;101695.06;5037009;28;45397;-52
2022/07/04 05:44:23;;;;;;;;;2.25;2.25;;;;;22.83;39.84;101690.63;5037139;28;45379;-51
2022/07/04 05:46:49;;;;;;;;;1.75;1.00;;;;;22.82;39.94;101688.94;5036476;28;46182;-54
2022/07/04 05:49:14;;;;;;;;;3.00;1.75;;;;;22.83;40.07;101684.47;5018723;28;45388;-51
2022/07/04 05:51:40;;;;;;;;;4.00;2.00;;;;;22.83;40.14;101693.28;5037188;28;45292;-54
2022/07/04 05:54:05;;;;;;;;;1.00;1.00;;;;;22.80;39.96;101690.78;5035593;28;45213;-55
2022/07/04 05:56:30;;;;;;;;;1.50;1.50;;;;;22.84;40.08;101692.34;5036665;28;45408;-54
2022/07/04 05:58:56;;;;;;;;;1.00;1.00;;;;;22.82;39.89;101682.81;5036325;28;45368;-54
2022/07/04 06:01:21;;;;;;;;;2.00;2.00;;;;;22.81;40.11;101683.72;5036818;28;45309;-55
2022/07/04 06:03:47;;;;;;;;;3.00;2.00;;;;;22.82;40.08;101696.00;5036622;28;45547;-52
2022/07/04 06:06:12;;;;;;;;;1.75;1.75;;;;;22.83;40.31;101695.91;5036436;28;45390;-53
2022/07/04 06:08:37;;;;;;;;;2.00;2.00;;;;;22.82;40.08;101694.22;5036736;28;45308;-51
2022/07/04 06:11:03;;;;;;;;;3.50;2.00;;;;;22.82;40.21;101694.22;5036460;28;45297;-52
2022/07/04 06:13:29;;;;;;;;;1.00;1.00;;;;;22.84;39.99;101696.75;5036649;28;45554;-54
2022/07/04 06:15:54;;;;;;;;;2.50;2.50;;;;;22.84;40.39;101694.13;5035782;28;45427;-54
2022/07/04 06:18:20;;;;;;;;;3.00;3.00;;;;;22.85;40.35;101699.34;5036369;28;45401;-53
2022/07/04 06:20:45;;;;;;;;;2.00;2.00;;;;;22.85;40.10;101699.34;5036062;28;45734;-54
2022/07/04 06:23:11;;;;;;;;;2.25;2.25;;;;;22.86;39.85;101705.47;5036706;28;45598;-55
2022/07/04 06:25:36;;;;;;;;;3.00;2.00;;;;;22.85;39.94;101702.00;5036190;28;45335;-54
2022/07/04 06:28:02;;;;;;;;;3.50;2.00;;;;;22.89;39.90;101699.16;5036065;28;45960;-54
2022/07/04 06:30:27;;;;;;;;;2.25;1.75;;;;;22.89;40.36;101694.75;5036358;28;45442;-52
2022/07/04 06:32:55;;;;;;;;;3.00;3.00;;;;;22.90;40.00;101704.41;5036235;28;45273;-51
2022/07/04 06:35:44;;;;;;;;;1.75;1.75;;;;;22.91;40.17;101699.94;5035762;28;46391;-54
2022/07/04 06:38:12;;;;;;;;;2.00;2.00;;;;;22.91;40.17;101702.59;5036380;28;45882;-54
2022/07/04 06:40:38;;;;;;;;;4.00;3.00;;;;;22.91;39.95;101698.19;5036519;28;45437;-52
2022/07/04 06:43:04;;;;;;;;;3.00;2.25;;;;;22.92;40.15;101699.00;5036004;28;45847;-54
2022/07/04 06:45:30;;;;;;;;;2.00;2.00;;;;;22.93;39.89;101698.09;5017959;28;46934;-54
2022/07/04 06:47:56;;;;;;;;;3.00;2.00;;;;;22.93;40.26;101693.63;5035495;28;45404;-51
2022/07/04 06:50:22;;;;;;;;;4.25;3.00;;;;;22.94;39.83;101699.78;5036053;28;45320;-53
2022/07/04 06:52:47;;;;;;;;;2.25;2.00;;;;;22.93;39.99;101701.56;5036008;28;45221;-52
2022/07/04 06:55:13;;;;;;;;;2.00;2.00;;;;;22.92;39.63;101697.25;5035669;28;46066;-53
2022/07/04 06:57:38;;;;;;;;;3.00;1.50;;;;;22.95;39.75;101698.88;5036074;28;45196;-52
2022/07/04 07:00:06;;;;;;;;;2.00;2.00;;;;;22.98;39.72;101711.94;5035635;28;45368;-52
2022/07/04 07:02:34;;;;;;;;;3.00;2.00;;;;;22.98;39.79;101709.28;5035900;28;45403;-51
2022/07/04 07:05:00;;;;;;;;;2.00;2.00;;;;;22.99;39.86;101717.13;5035024;28;47129;-50
2022/07/04 07:07:26;;;;;;;;;5.50;3.00;;;;;23.00;39.90;101720.63;5035202;28;45352;-51
2022/07/04 07:09:52;;;;;;;;;3.75;2.50;;;;;22.99;39.73;101716.25;5035673;28;45195;-53
2022/07/04 07:12:17;;;;;;;;;4.50;3.00;;;;;23.01;39.59;101717.91;5035983;28;45658;-55
2022/07/04 07:14:43;;;;;;;;;2.00;2.00;;;;;23.00;39.53;101717.97;5035295;28;45270;-50
2022/07/04 07:17:08;;;;;;;;;2.50;2.50;;;;;23.03;39.40;101714.34;5017934;28;45345;-58
2022/07/04 07:19:34;;;;;;;;;2.00;2.00;;;;;23.03;39.54;101728.41;5035579;28;46625;-57
2022/07/04 07:21:59;;;;;;;;;2.75;2.75;;;;;23.05;39.69;101729.16;5035409;28;45550;-58
2022/07/04 07:24:25;;;;;;;;;2.75;2.75;;;;;23.04;39.45;101726.63;5035437;28;46193;-57
2022/07/04 07:26:51;;;;;;;;;3.00;3.00;;;;;23.06;39.47;101728.25;5035130;28;45865;-56
2022/07/04 07:29:17;;;;;;;;;2.00;2.00;;;;;23.08;40.19;101723.72;5035475;28;45402;-56
2022/07/04 07:31:42;;;;;;;;;2.00;2.00;;;;;23.09;40.01;101727.22;5035494;28;45649;-57
2022/07/04 07:34:07;;;;;;;;;2.00;2.00;;;;;23.09;40.19;101727.22;5033808;28;45499;-56
2022/07/04 07:36:33;;;;;;;;;2.00;2.00;;;;;23.10;40.38;101724.47;5035141;28;45405;-56
2022/07/04 07:38:58;;;;;;;;;1.50;1.50;;;;;23.09;40.31;101719.28;5033792;28;45358;-56
2022/07/04 07:41:23;;;;;;;;;4.00;2.25;;;;;23.08;40.19;101709.66;5034035;28;45427;-56
2022/07/04 07:43:49;;;;;;;;;3.25;2.75;;;;;23.09;39.70;101708.72;5034855;28;46166;-57
2022/07/04 07:46:14;;;;;;;;;2.50;2.50;;;;;23.11;39.48;101710.31;5034657;28;45400;-56
2022/07/04 07:48:39;;;;;;;;;2.00;2.00;;;;;23.11;40.13;101710.31;5035231;28;45376;-57
2022/07/04 07:51:05;;;;;;;;;4.25;2.50;;;;;23.12;40.67;101709.41;5034552;28;49981;-56
2022/07/04 07:53:30;;;;;;;;;2.75;2.75;;;;;23.12;40.65;101708.56;5034516;28;45383;-58
2022/07/04 07:55:55;;;;;;;;;3.75;3.75;;;;;23.15;41.05;101713.69;5034635;28;47922;-59
2022/07/04 07:58:21;;;;;;;;;5.75;3.00;;;;;23.15;41.79;101703.13;5034861;28;45395;-57
2022/07/04 08:00:46;;;;;;;;;2.00;2.00;;;;;23.18;42.30;101716.16;5034987;28;45646;-57
2022/07/04 08:05:56;;;;;;;;;3.00;3.00;;;;;23.18;43.00;101702.94;5033509;28;45254;-58
2022/07/04 08:08:23;;;;;;;;;4.50;2.00;;;;;23.19;42.43;101703.81;5035058;28;45249;-56
2022/07/04 08:10:49;;;;;;;;;2.00;2.00;;;;;23.15;41.66;101698.66;5035011;28;45439;-58
2022/07/04 08:13:14;;;;;;;;;2.50;2.00;;;;;23.17;43.13;101703.88;5034715;28;46222;-56
2022/07/04 08:15:40;;;;;;;;;2.00;2.00;;;;;23.15;42.38;101701.31;5035118;28;45443;-54
2022/07/04 08:18:05;;;;;;;;;2.00;2.00;;;;;23.16;42.09;101702.16;5036312;28;45404;-55
2022/07/04 08:20:31;;;;;;;;;4.00;2.50;;;;;23.16;41.80;101702.16;5038579;28;45596;-57
2022/07/04 08:22:56;;;;;;;;;3.00;3.00;;;;;23.14;41.92;101698.75;5037802;28;46441;-56
2022/07/04 08:25:21;;;;;;;;;7.25;3.00;;;;;23.14;42.52;101702.25;5038213;28;45866;-61
2022/07/04 08:27:47;;;;;;;;;2.50;2.50;;;;;23.16;42.34;101691.56;5037862;28;45387;-73
2022/07/04 08:30:12;;;;;;;;;2.50;2.50;;;;;23.14;42.33;101694.31;5038278;28;45626;-71
2022/07/04 08:32:38;;;;;;;;;3.00;3.00;;;;;23.15;42.00;101696.03;5038211;28;46167;-73
2022/07/04 12:38:32;;;;;;;;;5.00;4.25;;;;;24.05;36.81;101557.91;4908376;28;45503;-50
2022/07/04 12:40:59;;;;;;;;;3.00;3.00;;;;;24.06;36.53;101560.50;4906886;29;45479;-48
2022/07/04 12:43:44;;;;;;;;;4.25;3.00;;;;;24.07;36.52;101553.41;4903831;29;45997;-51
2022/07/04 12:46:30;;;;;;;;;3.00;2.75;;;;;24.08;36.21;101544.50;4909985;28;45577;-45
2022/07/04 12:48:56;;;;;;;;;4.50;3.00;;;;;24.08;36.46;101548.03;4923643;28;45313;-53
2022/07/04 12:51:27;;;;;;;;;3.75;2.75;;;;;24.11;36.21;101551.41;4923828;28;45377;-48
2022/07/04 12:53:54;;;;;;;;;3.00;2.00;;;;;24.10;36.12;101545.28;4929529;28;46210;-46
2022/07/04 12:56:32;;;;;;;;;3.25;3.25;;;;;24.13;36.18;101549.53;4924853;28;46286;-53
2022/07/04 12:58:59;;;;;;;;;2.75;2.75;;;;;24.12;36.17;101543.41;4902007;29;45450;-54
2022/07/04 13:01:24;;;;;;;;;4.25;3.25;;;;;24.12;36.78;101543.41;4902312;29;45275;-55
2022/07/04 13:03:49;;;;;;;;;3.50;3.00;;;;;24.13;36.34;101542.44;4900125;29;53728;-47
2022/07/04 13:06:15;;;;;;;;;3.00;3.00;;;;;24.14;36.18;101535.34;4911445;28;45442;-52
2022/07/04 13:08:40;;;;;;;;;3.50;3.25;;;;;24.14;36.06;101536.22;4920412;28;45326;-46
2022/07/04 13:13:49;;;;;;;;;3.00;3.00;;;;;24.16;36.28;101531.66;4937179;28;45761;-45
2022/07/04 13:16:14;;;;;;;;;2.00;1.50;;;;;24.17;36.25;101533.38;4925262;28;45359;-51
2022/07/04 13:18:40;;;;;;;;;2.00;2.00;;;;;24.18;36.47;101536.88;4921454;28;45420;-46
2022/07/04 13:21:05;;;;;;;;;3.00;2.00;;;;;24.14;36.26;101524.75;4921556;28;45524;-45
2022/07/04 13:23:31;;;;;;;;;4.00;2.50;;;;;24.17;36.46;101528.06;4924443;28;45217;-46
2022/07/04 13:25:56;;;;;;;;;2.75;2.75;;;;;24.18;36.46;101518.34;4931985;28;45173;-51
2022/07/04 13:28:21;;;;;;;;;3.50;2.25;;;;;24.18;36.80;101527.13;4921725;28;45447;-47
2022/07/04 13:30:47;;;;;;;;;2.75;2.00;;;;;24.17;36.42;101520.13;4919539;28;48656;-49
2022/07/04 13:33:12;;;;;;;;;2.00;2.00;;;;;24.18;36.42;101513.03;4919789;28;46089;-47
2022/07/04 13:35:37;;;;;;;;;2.75;2.75;;;;;24.18;36.32;101518.34;4919400;28;45914;-48
2022/07/04 13:38:03;;;;;;;;;2.00;1.75;;;;;24.18;36.60;101510.41;4918952;28;46707;-43
2022/07/04 13:40:29;;;;;;;;;2.00;2.00;;;;;24.18;35.98;101513.03;4924754;28;45327;-48
2022/07/04 13:42:58;;;;;;;;;3.00;3.00;;;;;24.18;36.55;101521.81;4934945;28;46962;-44
2022/07/04 13:45:23;;;;;;;;;2.00;2.00;;;;;24.19;36.66;101520.03;4939027;28;45141;-43
2022/07/04 13:47:49;;;;;;;;;3.50;2.50;;;;;24.18;36.02;101521.00;4919283;28;45432;-49
2022/07/04 13:50:14;;;;;;;;;1.00;1.00;;;;;24.21;35.71;101523.44;4919856;28;45359;-48
2022/07/04 13:52:39;;;;;;;;;2.75;2.75;;;;;24.20;35.51;101514.66;4918450;28;45344;-47
2022/07/04 13:55:05;;;;;;;;;4.00;3.00;;;;;24.21;36.27;101521.66;4918865;28;45369;-45
2022/07/04 13:57:31;;;;;;;;;1.50;1.50;;;;;24.21;36.24;101518.13;4918912;28;45238;-52
2022/07/04 13:59:56;;;;;;;;;2.00;2.00;;;;;24.21;36.14;101515.47;4900865;28;45353;-49
2022/07/04 14:02:21;;;;;;;;;1.00;1.00;;;;;24.21;35.92;101510.19;4899574;29;55996;-53
2022/07/04 14:04:47;;;;;;;;;2.00;2.00;;;;;24.21;35.56;101519.00;4899038;29;56676;-52
2022/07/04 14:07:12;;;;;;;;;2.00;2.00;;;;;24.23;36.01;101513.59;4899789;29;45300;-52
2022/07/04 14:09:37;;;;;;;;;2.50;2.50;;;;;24.21;35.85;101511.06;4902159;28;45271;-53
2022/07/04 14:12:03;;;;;;;;;2.00;2.00;;;;;24.23;35.87;101503.00;4902678;29;45302;-50
2022/07/04 14:14:28;;;;;;;;;1.50;1.50;;;;;24.22;35.01;101510.13;4898629;29;45471;-50
2022/07/04 14:16:54;;;;;;;;;4.75;1.00;;;;;24.24;34.94;101510.00;4899099;29;45237;-53
2022/07/04 14:19:19;;;;;;;;;2.75;2.00;;;;;24.24;35.46;101500.28;4899960;29;45220;-47
2022/07/04 14:21:44;;;;;;;;;4.00;2.00;;;;;24.24;35.58;101500.28;4913270;28;46057;-48
2022/07/04 14:24:10;;;;;;;;;1.50;1.50;;;;;24.25;35.68;101501.13;4903767;28;48039;-51
2022/07/04 14:26:35;;;;;;;;;2.00;2.00;;;;;24.24;35.25;101492.34;4899430;29;45415;-49
2022/07/04 14:29:00;;;;;;;;;2.00;2.00;;;;;24.25;35.61;101487.88;4912762;28;45388;-45
2022/07/04 14:31:26;;;;;;;;;2.00;2.00;;;;;24.24;35.58;101489.69;4935255;28;56219;-51
2022/07/04 14:33:51;;;;;;;;;2.00;2.00;;;;;24.25;35.38;101490.53;4903651;28;45264;-49
2022/07/04 14:36:16;;;;;;;;;3.00;1.50;;;;;24.24;35.25;101484.38;4903813;29;45388;-50
2022/07/04 14:38:42;;;;;;;;;1.75;1.75;;;;;24.24;35.20;101479.09;4916179;29;45398;-52
2022/07/04 14:41:10;;;;;;;;;3.00;2.00;;;;;24.26;35.54;101476.34;4904434;29;46196;-51
2022/07/04 14:43:40;;;;;;;;;2.75;1.50;;;;;24.26;35.29;101476.34;4899749;29;45432;-52
2022/07/04 14:46:05;;;;;;;;;1.25;1.00;;;;;24.25;35.02;101479.94;4898801;29;45462;-49
2022/07/04 14:48:31;;;;;;;;;2.00;2.00;;;;;24.26;35.14;101476.34;4899512;29;45421;-48
2022/07/04 14:50:56;;;;;;;;;4.00;3.00;;;;;24.25;35.54;101477.28;4899143;29;45437;-52
2022/07/04 14:53:21;;;;;;;;;1.25;1.25;;;;;24.26;35.44;101472.81;4899301;29;52262;-51
2022/07/04 14:55:48;;;;;;;;;3.00;2.00;;;;;24.27;35.14;101471.88;4899216;29;45442;-51
2022/07/04 14:58:14;;;;;;;;;1.75;1.75;;;;;24.28;34.98;101468.28;4900870;29;45681;-52
2022/07/04 15:00:39;;;;;;;;;1.50;1.50;;;;;24.28;35.16;101474.44;4899878;29;46888;-51
2022/07/04 15:03:05;;;;;;;;;1.25;1.25;;;;;24.27;34.66;101462.16;4900360;29;45465;-47
2022/07/04 15:05:30;;;;;;;;;2.00;2.00;;;;;24.28;34.21;101463.84;4901051;29;45283;-49
2022/07/04 15:07:56;;;;;;;;;2.50;2.00;;;;;24.29;34.77;101470.00;4898596;29;45505;-49
2022/07/04 15:10:22;;;;;;;;;1.50;1.50;;;;;24.28;34.65;101463.00;4881873;29;47019;-45
2022/07/04 15:12:48;;;;;;;;;2.75;1.00;;;;;24.28;34.86;101455.03;4898785;29;45269;-49
2022/07/04 15:15:14;;;;;;;;;2.75;1.00;;;;;24.28;34.42;101453.25;4898552;29;45254;-55
2022/07/04 15:17:39;;;;;;;;;2.75;2.75;;;;;24.29;34.56;101454.97;4898819;29;45323;-53
2022/07/04 15:25:33;;;;;;;;;2.00;2.00;;;;;24.28;34.18;101450.63;4901041;29;45346;-51
2022/07/04 15:27:59;;;;;;;;;2.00;2.00;;;;;24.28;34.28;101453.25;4904347;29;45193;-52
2022/07/04 15:30:24;;;;;;;;;2.00;2.00;;;;;24.28;34.31;101447.97;4907074;29;46022;-51
2022/07/04 15:32:49;;;;;;;;;2.00;2.00;;;;;24.27;34.65;101440.97;4906594;29;45222;-55
2022/07/04 15:35:15;;;;;;;;;2.75;1.00;;;;;24.26;34.91;101444.56;4906675;28;45313;-48
2022/07/04 15:37:40;;;;;;;;;3.50;2.50;;;;;24.27;34.46;101443.59;4901691;29;45537;-49
2022/07/04 15:40:08;;;;;;;;;2.00;2.00;;;;;24.28;34.41;101450.63;4884062;29;59239;-47